Time;durP1;ratioP1;P1;durP2;ratioP2;P2;SDS_P1;SDS_P2;PMS_P1;PMS_P2;Temp;Humidity;BMP_temperature;BMP_pressure;BME280_temperature;BME280_humidity;BME280_pressure;Samples;Min_cycle;Max_cycle;Signal;HPM_P1;HPM_P2
2021/04/10 00:01:56;;;;;;;4.17;3.03;;;;;;;10.86;45.57;98511.34;5047442;28;42747;-73
2021/04/10 00:04:23;;;;;;;4.00;3.60;;;;;;;10.85;45.65;98511.44;5050074;28;41916;-72
2021/04/10 00:06:50;;;;;;;4.43;3.20;;;;;;;10.82;45.61;98517.78;5048789;28;39978;-73
2021/04/10 00:09:17;;;;;;;4.03;3.10;;;;;;;10.82;45.90;98517.78;5049919;28;41509;-73
2021/04/10 00:11:45;;;;;;;4.37;3.13;;;;;;;10.50;45.45;98468.84;5049386;28;43517;-73
2021/04/10 00:14:14;;;;;;;4.13;2.87;;;;;;;10.84;45.67;98513.25;5064356;28;42132;-73
2021/04/10 00:16:43;;;;;;;4.17;2.77;;;;;;;10.85;45.88;98509.63;5049648;28;40767;-73
2021/04/10 00:19:10;;;;;;;3.47;2.80;;;;;;;10.87;45.77;98515.69;5049563;28;41736;-73
2021/04/10 00:21:38;;;;;;;3.10;2.27;;;;;;;10.90;46.09;98510.16;5047161;28;42707;-73
2021/04/10 00:24:06;;;;;;;2.93;2.60;;;;;;;10.93;46.01;98501.16;5047400;28;42361;-73
2021/04/10 00:26:34;;;;;;;3.37;2.60;;;;;;;10.95;45.90;98496.59;5048155;28;38829;-73
2021/04/10 00:29:01;;;;;;;3.67;2.60;;;;;;;10.89;45.72;98476.66;5063663;28;41677;-73
2021/04/10 00:31:28;;;;;;;3.93;2.77;;;;;;;10.99;45.65;98491.00;5047666;28;43149;-73
2021/04/10 00:33:56;;;;;;;2.53;2.10;;;;;;;11.01;46.15;98478.47;5031296;28;41471;-73
2021/04/10 00:36:23;;;;;;;5.33;2.80;;;;;;;11.07;45.99;98480.69;5047436;28;40788;-73
2021/04/10 00:38:50;;;;;;;4.43;2.73;;;;;;;11.09;46.05;98476.13;5047466;28;41652;-73
2021/04/10 00:41:18;;;;;;;5.20;2.17;;;;;;;11.10;46.01;98474.34;5048302;28;41953;-73
2021/04/10 00:43:45;;;;;;;6.57;2.90;;;;;;;11.09;46.12;98462.03;5051312;28;42119;-73
2021/04/10 00:46:12;;;;;;;5.40;2.70;;;;;;;11.07;46.60;98458.63;5051318;28;39688;-73
2021/04/10 00:48:39;;;;;;;3.20;2.90;;;;;;;11.03;46.26;98452.69;5051546;28;42375;-73
2021/04/10 00:51:07;;;;;;;6.10;2.93;;;;;;;11.09;46.59;98457.59;5051567;28;41898;-73
2021/04/10 00:53:36;;;;;;;6.53;3.20;;;;;;;11.12;46.01;98462.66;5052650;28;42041;-73
2021/04/10 00:56:06;;;;;;;4.30;2.53;;;;;;;11.15;46.19;98462.44;5050617;28;41346;-73
2021/04/10 00:58:39;;;;;;;3.57;2.83;;;;;;;11.15;46.09;98454.47;5052783;28;42665;-73
2021/04/10 01:01:09;;;;;;;4.73;3.13;;;;;;;11.07;46.43;98448.03;5049765;28;42725;-73
2021/04/10 01:03:40;;;;;;;6.63;4.03;;;;;;;10.95;46.74;98446.25;5050111;28;42136;-72
2021/04/10 01:06:08;;;;;;;6.27;3.97;;;;;;;10.86;46.76;98447.75;5050730;28;40102;-72
2021/04/10 01:08:36;;;;;;;7.27;4.67;;;;;;;10.83;46.95;98455.91;5051889;28;40651;-73
2021/04/10 01:11:32;;;;;;;4.90;4.00;;;;;;;10.79;47.19;98438.53;5049842;28;43248;-73
2021/04/10 01:14:07;;;;;;;4.90;2.83;;;;;;;10.75;47.22;98432.63;5067178;28;41670;-73
2021/04/10 01:16:39;;;;;;;3.57;2.67;;;;;;;10.78;47.20;98442.13;5050633;28;40607;-72
2021/04/10 01:19:20;;;;;;;4.37;2.43;;;;;;;10.80;47.12;98446.38;5051024;28;41658;-74
2021/04/10 01:21:59;;;;;;;4.20;2.93;;;;;;;10.75;48.22;98429.13;5050746;28;42747;-73
2021/04/10 01:24:46;;;;;;;6.60;3.53;;;;;;;10.68;47.71;98433.13;5050307;28;42971;-73
2021/04/10 01:27:24;;;;;;;4.80;2.83;;;;;;;10.55;47.52;98425.19;5050189;28;40502;-72
2021/04/10 01:29:56;;;;;;;4.17;2.60;;;;;;;10.47;47.18;98426.69;5067239;28;42151;-73
2021/04/10 01:32:28;;;;;;;4.20;2.57;;;;;;;10.44;47.24;98422.44;5051412;28;43162;-73
2021/04/10 01:35:00;;;;;;;5.40;2.67;;;;;;;10.50;47.11;98429.13;5066397;28;42303;-72
2021/04/10 01:37:30;;;;;;;3.50;2.50;;;;;;;10.56;47.24;98434.00;5066775;28;42171;-73
2021/04/10 01:40:00;;;;;;;3.63;2.47;;;;;;;10.57;46.91;98427.75;5034541;28;40296;-73
2021/04/10 01:42:28;;;;;;;4.07;2.43;;;;;;;10.59;47.07;98425.84;5051850;28;42550;-73
2021/04/10 01:44:59;;;;;;;3.77;2.67;;;;;;;10.71;46.79;98422.34;5049375;28;41977;-72
2021/04/10 01:47:29;;;;;;;5.87;2.53;;;;;;;10.83;46.62;98429.44;5066275;28;39843;-72
2021/04/10 01:49:58;;;;;;;7.10;2.77;;;;;;;10.96;46.18;98427.59;5066953;28;41413;-72
2021/04/10 01:52:30;;;;;;;3.07;2.27;;;;;;;11.06;46.09;98433.94;5050793;28;41863;-73
2021/04/10 01:54:59;;;;;;;5.70;2.67;;;;;;;11.14;45.94;98431.59;5050749;28;42184;-72
2021/04/10 01:57:27;;;;;;;5.73;2.20;;;;;;;11.20;45.95;98426.81;5066901;28;40755;-72
2021/04/10 02:00:01;;;;;;;5.67;2.47;;;;;;;11.25;45.79;98430.00;5051808;28;41544;-72
2021/04/10 02:02:55;;;;;;;4.00;2.40;;;;;;;11.31;45.77;98426.88;5050327;28;42772;-73
2021/04/10 02:05:26;;;;;;;4.37;2.60;;;;;;;11.33;45.98;98432.94;5050163;28;42294;-73
2021/04/10 02:08:04;;;;;;;7.87;2.40;;;;;;;11.32;46.12;98420.63;5065927;28;39719;-72
2021/04/10 02:10:32;;;;;;;4.47;2.70;;;;;;;11.35;46.03;98428.38;5050480;28;41659;-73
2021/04/10 02:13:08;;;;;;;3.83;2.40;;;;;;;11.40;46.15;98423.56;5049456;28;42248;-73
2021/04/10 02:15:45;;;;;;;5.50;2.67;;;;;;;11.43;46.02;98412.72;5051321;28;42877;-73
2021/04/10 02:18:15;;;;;;;3.10;1.93;;;;;;;11.48;46.01;98413.25;5066355;28;40178;-73
2021/04/10 02:20:42;;;;;;;6.47;2.17;;;;;;;11.50;45.79;98422.78;5050874;28;41518;-73
2021/04/10 02:23:10;;;;;;;4.83;2.57;;;;;;;11.53;45.79;98424.34;5065854;28;43434;-73
2021/04/10 02:25:42;;;;;;;4.30;2.60;;;;;;;11.54;45.86;98415.44;5050207;28;42050;-73
2021/04/10 02:28:11;;;;;;;6.47;2.37;;;;;;;11.57;45.51;98420.53;5049853;28;39549;-73
2021/04/10 02:30:39;;;;;;;5.63;2.67;;;;;;;11.56;45.87;98408.22;5048957;28;41609;-74
2021/04/10 02:33:25;;;;;;;6.60;4.13;;;;;;;11.65;46.67;98422.59;5049415;28;42650;-73
2021/04/10 02:35:55;;;;;;;5.47;4.00;;;;;;;11.59;47.08;98408.00;5049108;28;42750;-73
2021/04/10 02:38:25;;;;;;;5.80;3.77;;;;;;;11.62;46.67;98415.72;5051126;28;39342;-74
2021/04/10 02:40:59;;;;;;;6.30;2.93;;;;;;;11.61;46.93;98414.06;5049151;28;41675;-73
2021/04/10 02:43:28;;;;;;;5.37;3.10;;;;;;;11.64;46.99;98405.84;5049872;28;42514;-73
2021/04/10 02:46:00;;;;;;;4.73;2.43;;;;;;;11.65;46.85;98420.81;5048246;28;42742;-73
2021/04/10 02:48:35;;;;;;;3.97;3.10;;;;;;;11.52;46.92;98390.84;5049457;28;41249;-73
2021/04/10 02:51:04;;;;;;;6.60;3.57;;;;;;;11.67;46.81;98416.25;5065950;28;41490;-74
2021/04/10 02:53:36;;;;;;;4.00;2.90;;;;;;;11.65;46.88;98412.84;5050954;28;43440;-73
2021/04/10 02:56:05;;;;;;;5.83;2.77;;;;;;;11.66;46.94;98413.69;5050068;28;42895;-73
2021/04/10 02:58:32;;;;;;;4.27;2.80;;;;;;;11.67;46.99;98418.88;5050819;28;39995;-73
2021/04/10 03:01:02;;;;;;;4.37;3.07;;;;;;;11.67;47.21;98410.94;5065472;28;41408;-74
2021/04/10 03:03:34;;;;;;;2.50;2.20;;;;;;;11.69;46.83;98414.31;5050234;28;42736;-73
2021/04/10 03:06:03;;;;;;;5.07;2.33;;;;;;;11.71;47.00;98408.91;5049112;28;42658;-73
2021/04/10 03:08:32;;;;;;;4.07;2.60;;;;;;;11.74;47.37;98417.50;5067426;28;39983;-73
2021/04/10 03:11:03;;;;;;;5.47;2.10;;;;;;;11.75;46.77;98424.50;5051219;28;41382;-74
2021/04/10 03:13:33;;;;;;;3.63;2.10;;;;;;;11.81;46.86;98418.75;5050480;28;42567;-73
2021/04/10 03:16:09;;;;;;;3.80;2.30;;;;;;;11.83;46.82;98421.28;5051136;28;42299;-74
2021/04/10 03:18:39;;;;;;;5.57;2.37;;;;;;;11.84;47.23;98413.22;5049499;28;39592;-73
2021/04/10 03:21:07;;;;;;;2.40;2.20;;;;;;;11.90;47.13;98413.72;5049479;28;42323;-74
2021/04/10 03:23:41;;;;;;;5.53;2.60;;;;;;;11.94;46.84;98417.84;5048737;28;42734;-73
2021/04/10 03:26:09;;;;;;;4.63;2.30;;;;;;;11.96;47.02;98414.09;5048359;28;41575;-73
2021/04/10 03:28:39;;;;;;;3.87;1.90;;;;;;;11.97;47.24;98417.63;5050274;28;40258;-73
2021/04/10 03:31:08;;;;;;;3.43;2.13;;;;;;;11.95;47.56;98409.75;5048170;28;42235;-73
2021/04/10 03:33:38;;;;;;;4.23;2.03;;;;;;;12.04;48.02;98416.16;5064450;28;43524;-73
2021/04/10 03:36:07;;;;;;;2.73;2.40;;;;;;;12.07;47.78;98402.69;5065141;28;42610;-73
2021/04/10 03:38:40;;;;;;;4.47;2.00;;;;;;;12.11;47.94;98398.84;5049596;28;41325;-74
2021/04/10 03:41:08;;;;;;;5.27;1.90;;;;;;;12.11;48.28;98394.38;5065014;28;42448;-73
2021/04/10 03:43:36;;;;;;;5.47;1.83;;;;;;;12.23;48.81;98403.22;5048615;28;42660;-73
2021/04/10 03:46:04;;;;;;;3.17;2.40;;;;;;;12.31;48.65;98405.28;5047611;28;42293;-73
2021/04/10 03:48:33;;;;;;;2.63;1.70;;;;;;;12.41;48.35;98412.41;5049306;28;39494;-73
2021/04/10 03:51:06;;;;;;;4.73;2.20;;;;;;;12.45;48.36;98413.88;5049100;28;41891;-73
2021/04/10 03:53:43;;;;;;;5.30;1.97;;;;;;;12.53;48.31;98408.81;5049394;28;43168;-74
2021/04/10 03:56:13;;;;;;;4.17;2.10;;;;;;;12.57;47.94;98410.25;5064643;28;41965;-73
2021/04/10 03:58:42;;;;;;;4.73;1.90;;;;;;;12.61;48.17;98413.50;5049796;28;39721;-73
2021/04/10 04:01:11;;;;;;;2.87;1.80;;;;;;;12.58;47.63;98398.69;5065221;28;41038;-73
2021/04/10 04:03:39;;;;;;;2.80;1.90;;;;;;;12.62;47.54;98403.72;5049727;28;42279;-73
2021/04/10 04:06:07;;;;;;;4.43;1.90;;;;;;;12.62;47.66;98411.69;5049457;28;42171;-73
2021/04/10 04:08:34;;;;;;;5.33;1.97;;;;;;;12.64;47.63;98412.44;5065241;28;39922;-73
2021/04/10 04:11:01;;;;;;;3.30;2.03;;;;;;;12.64;47.56;98418.59;5065265;28;41103;-73
2021/04/10 04:13:28;;;;;;;6.23;2.20;;;;;;;12.64;47.94;98407.13;5050162;28;43438;-73
2021/04/10 04:15:55;;;;;;;5.83;2.10;;;;;;;12.61;48.45;98412.69;5063870;28;42228;-73
2021/04/10 04:18:22;;;;;;;3.70;1.87;;;;;;;12.62;48.22;98414.34;5049709;28;39867;-73
2021/04/10 04:20:49;;;;;;;3.53;1.93;;;;;;;12.59;48.73;98421.63;5064091;28;41548;-73
2021/04/10 04:23:17;;;;;;;2.10;1.63;;;;;;;12.59;48.70;98421.63;5049444;28;42888;-73
2021/04/10 04:25:44;;;;;;;6.47;2.07;;;;;;;12.62;48.94;98424.97;5047972;28;42100;-73
2021/04/10 04:28:11;;;;;;;4.67;2.03;;;;;;;12.66;48.63;98437.91;5048518;28;39697;-73
2021/04/10 04:30:38;;;;;;;3.67;1.80;;;;;;;12.69;48.47;98442.16;5048031;28;41458;-72
2021/04/10 04:33:05;;;;;;;4.10;1.70;;;;;;;12.72;48.60;98441.94;5048412;28;42396;-72
2021/04/10 04:35:32;;;;;;;4.27;1.80;;;;;;;12.78;48.35;98446.75;5048365;28;42756;-73
2021/04/10 04:38:00;;;;;;;3.93;1.50;;;;;;;12.80;48.55;98444.81;5047498;28;40772;-72
2021/04/10 04:40:28;;;;;;;4.27;1.83;;;;;;;12.82;48.35;98448.22;5030989;28;40599;-73
2021/04/10 04:42:55;;;;;;;3.57;1.67;;;;;;;12.83;48.65;98450.75;5030903;28;42151;-72
2021/04/10 04:45:22;;;;;;;2.87;1.90;;;;;;;12.82;48.88;98446.41;5047333;28;41941;-73
2021/04/10 04:47:49;;;;;;;4.60;1.87;;;;;;;12.87;48.89;98454.00;5048423;28;39824;-73
2021/04/10 04:50:16;;;;;;;4.07;2.10;;;;;;;12.88;48.81;98443.25;5048668;28;42771;-74
2021/04/10 04:52:43;;;;;;;3.73;1.90;;;;;;;12.93;48.78;98456.19;5048758;28;42636;-73
2021/04/10 04:55:11;;;;;;;2.70;1.57;;;;;;;12.92;49.14;98447.38;5046823;28;42092;-73
2021/04/10 04:57:39;;;;;;;4.03;1.60;;;;;;;12.98;48.99;98451.38;5047880;28;39681;-73
2021/04/10 05:00:07;;;;;;;3.63;1.90;;;;;;;12.97;49.03;98457.66;5048144;28;41453;-73
2021/04/10 05:02:35;;;;;;;3.53;1.77;;;;;;;12.99;49.20;98463.66;5048776;28;43324;-73
2021/04/10 05:05:02;;;;;;;2.67;1.80;;;;;;;12.99;49.61;98461.00;5048556;28;41980;-73
2021/04/10 05:07:30;;;;;;;5.87;2.07;;;;;;;13.03;49.49;98472.25;5031573;28;39856;-73
2021/04/10 05:09:57;;;;;;;5.53;1.87;;;;;;;13.05;49.66;98471.16;5047189;28;42541;-73
2021/04/10 05:12:24;;;;;;;4.20;1.80;;;;;;;13.09;50.01;98471.78;5047651;28;41762;-72
2021/04/10 05:14:52;;;;;;;3.43;1.67;;;;;;;13.10;50.29;98466.34;5048067;28;42721;-73
2021/04/10 05:17:19;;;;;;;6.80;2.63;;;;;;;13.11;50.59;98465.34;5047078;28;40866;-72
2021/04/10 05:19:46;;;;;;;5.17;1.60;;;;;;;13.14;50.44;98470.47;5049355;28;42429;-73
2021/04/10 05:22:13;;;;;;;1.97;1.60;;;;;;;13.18;50.36;98471.09;5048039;28;43106;-73
2021/04/10 05:24:40;;;;;;;2.33;1.73;;;;;;;13.18;50.54;98474.59;5063740;28;43065;-73
2021/04/10 05:27:07;;;;;;;4.20;1.90;;;;;;;13.19;50.44;98481.59;5047587;28;39994;-73
2021/04/10 05:29:34;;;;;;;2.67;1.90;;;;;;;13.18;50.51;98482.56;5049109;28;41934;-72
2021/04/10 05:32:02;;;;;;;3.00;1.70;;;;;;;13.23;50.40;98491.00;5051958;28;43536;-72
2021/04/10 05:34:29;;;;;;;4.57;1.80;;;;;;;13.24;50.45;98498.00;5066689;28;42045;-73
2021/04/10 05:36:56;;;;;;;4.80;2.20;;;;;;;13.26;50.33;98501.41;5050847;28;39026;-73
2021/04/10 05:39:23;;;;;;;4.80;2.10;;;;;;;13.28;50.49;98504.78;5066964;28;42576;-74
2021/04/10 05:41:50;;;;;;;2.07;1.73;;;;;;;13.34;50.42;98508.78;5050090;28;42026;-74
2021/04/10 05:44:18;;;;;;;4.03;1.90;;;;;;;13.38;50.10;98504.06;5067641;28;42160;-73
2021/04/10 05:46:45;;;;;;;4.13;1.63;;;;;;;13.40;50.24;98513.63;5051360;28;39973;-73
2021/04/10 05:49:12;;;;;;;6.17;2.10;;;;;;;13.42;50.18;98516.16;5051654;28;41580;-73
2021/04/10 05:51:39;;;;;;;2.53;1.70;;;;;;;13.44;50.23;98519.53;5066309;28;42815;-73
2021/04/10 05:54:08;;;;;;;5.10;1.60;;;;;;;13.44;50.34;98519.53;5051506;28;42083;-73
2021/04/10 05:56:35;;;;;;;4.03;1.60;;;;;;;13.47;50.47;98524.63;5051625;28;40059;-74
2021/04/10 05:59:02;;;;;;;3.57;1.70;;;;;;;13.49;50.56;98514.69;5051836;28;41724;-73
2021/04/10 06:01:30;;;;;;;2.93;1.77;;;;;;;13.45;50.34;98521.25;5051390;28;42608;-73
2021/04/10 06:03:57;;;;;;;5.20;1.80;;;;;;;13.49;50.38;98517.34;5051462;28;42148;-73
2021/04/10 06:06:25;;;;;;;3.00;1.53;;;;;;;13.52;50.80;98520.63;5051594;28;41704;-73
2021/04/10 06:08:53;;;;;;;3.27;2.10;;;;;;;13.56;50.56;98515.91;5066688;28;41859;-74
2021/04/10 06:11:20;;;;;;;4.60;1.83;;;;;;;13.52;50.58;98506.47;5050806;28;42592;-73
2021/04/10 06:13:47;;;;;;;3.60;1.67;;;;;;;13.63;50.76;98525.06;5050299;28;42337;-74
2021/04/10 06:16:14;;;;;;;5.17;1.70;;;;;;;13.64;50.85;98529.44;5033283;28;39004;-74
2021/04/10 06:18:41;;;;;;;2.47;1.60;;;;;;;13.64;50.55;98537.41;5050682;28;41786;-72
2021/04/10 06:21:08;;;;;;;4.33;1.97;;;;;;;13.60;50.96;98535.94;5049253;28;42554;-72
2021/04/10 06:23:36;;;;;;;4.83;2.23;;;;;;;13.60;51.11;98530.63;5050849;28;42781;-74
2021/04/10 06:26:03;;;;;;;3.37;1.90;;;;;;;13.53;51.79;98534.75;5050842;28;40473;-73
2021/04/10 06:28:30;;;;;;;3.20;1.50;;;;;;;13.61;51.48;98538.50;5050477;28;41806;-72
2021/04/10 06:30:58;;;;;;;3.07;1.67;;;;;;;13.60;51.89;98546.59;5045213;28;43650;-72
2021/04/10 06:33:26;;;;;;;2.73;1.47;;;;;;;13.62;51.89;98548.19;5049837;28;41683;-72
2021/04/10 06:35:54;;;;;;;3.60;1.87;;;;;;;13.64;51.83;98548.06;5048189;28;39814;-73
2021/04/10 06:38:21;;;;;;;2.17;1.23;;;;;;;13.64;52.04;98553.38;5044411;28;41744;-73
2021/04/10 06:40:49;;;;;;;4.23;1.90;;;;;;;13.69;51.85;98559.19;5044277;28;41676;-73
2021/04/10 06:43:17;;;;;;;4.83;1.70;;;;;;;13.67;52.26;98558.47;5048411;28;42350;-72
2021/04/10 06:45:44;;;;;;;2.37;1.43;;;;;;;13.64;52.61;98564.03;5047136;28;39608;-73
2021/04/10 06:48:13;;;;;;;4.63;1.60;;;;;;;13.55;52.33;98554.13;5030356;28;41584;-73
2021/04/10 06:50:42;;;;;;;3.07;1.70;;;;;;;13.58;53.26;98559.19;5024453;28;42714;-73
2021/04/10 06:53:15;;;;;;;3.77;1.80;;;;;;;13.52;53.79;98565.00;5024994;28;42150;-73
2021/04/10 06:55:48;;;;;;;3.27;2.23;;;;;;;13.40;54.66;98555.31;5047154;28;40300;-73
2021/04/10 06:58:18;;;;;;;3.63;2.00;;;;;;;13.20;55.83;98560.41;5029835;28;41633;-73
2021/04/10 07:00:46;;;;;;;3.87;1.60;;;;;;;12.99;56.83;98556.69;5029001;28;41614;-73
2021/04/10 07:03:13;;;;;;;3.10;1.50;;;;;;;12.79;58.46;98554.72;5048560;28;42291;-73
2021/04/10 07:05:41;;;;;;;3.53;1.93;;;;;;;12.63;59.22;98556.84;5048288;28;40757;-73
2021/04/10 07:08:09;;;;;;;5.47;2.13;;;;;;;12.63;59.71;98562.16;5046582;28;40870;-73
2021/04/10 07:10:36;;;;;;;3.50;2.20;;;;;;;12.54;60.10;98567.22;5028144;28;41155;-73
2021/04/10 07:13:03;;;;;;;4.20;2.20;;;;;;;12.56;60.39;98575.91;5048228;28;42776;-73
2021/04/10 07:15:32;;;;;;;3.67;2.20;;;;;;;12.53;60.62;98583.25;5042829;28;39395;-73
2021/04/10 07:18:00;;;;;;;7.00;2.10;;;;;;;12.57;59.81;98585.59;5046290;28;41072;-73
2021/04/10 07:20:29;;;;;;;4.33;2.00;;;;;;;12.61;60.28;98593.34;5047430;28;42878;-73
2021/04/10 07:22:58;;;;;;;4.00;1.73;;;;;;;12.68;60.00;98600.72;5047474;28;42703;-73
2021/04/10 07:25:26;;;;;;;3.50;2.17;;;;;;;12.76;59.63;98597.47;5047954;28;40568;-73
2021/04/10 07:27:55;;;;;;;3.90;1.87;;;;;;;12.88;59.42;98601.84;5046939;28;41568;-72
2021/04/10 07:30:22;;;;;;;4.07;2.10;;;;;;;12.99;58.76;98599.22;5047134;28;43006;-72
2021/04/10 07:32:50;;;;;;;4.27;1.93;;;;;;;13.07;58.61;98606.63;5047706;28;42527;-72
2021/04/10 07:35:18;;;;;;;3.93;2.20;;;;;;;13.11;58.60;98613.38;5046764;28;40053;-73
2021/04/10 07:37:48;;;;;;;5.30;1.90;;;;;;;13.18;58.46;98620.81;5046732;28;42339;-72
2021/04/10 07:40:19;;;;;;;5.90;1.90;;;;;;;13.25;58.26;98622.03;5048049;28;20244;-73
2021/04/10 07:42:47;;;;;;;6.03;1.80;;;;;;;13.34;58.00;98635.63;5046168;28;42457;-73
2021/04/10 07:45:28;;;;;;;3.73;2.00;;;;;;;13.41;56.77;98637.66;5044194;28;40540;-73
2021/04/10 07:48:04;;;;;;;2.90;1.60;;;;;;;13.54;56.97;98626.91;5047841;28;41863;-73
2021/04/10 07:50:33;;;;;;;6.33;2.20;;;;;;;13.66;56.93;98636.59;5043688;28;42499;-73
2021/04/10 07:53:19;;;;;;;3.50;2.13;;;;;;;13.89;56.30;98632.97;5046093;28;42021;-72
2021/04/10 07:55:46;;;;;;;3.63;2.23;;;;;;;13.99;55.98;98644.56;5043595;28;40671;-73
2021/04/10 07:58:21;;;;;;;3.60;2.20;;;;;;;14.15;54.95;98657.50;5046883;28;41436;-73
2021/04/10 08:00:49;;;;;;;3.33;2.20;;;;;;;14.37;54.74;98653.94;5028969;28;41856;-73
2021/04/10 08:03:26;;;;;;;3.13;1.90;;;;;;;14.76;54.32;98665.03;5046127;28;43018;-73
2021/04/10 08:05:53;;;;;;;4.57;2.00;;;;;;;15.14;52.68;98670.69;5029246;28;40573;-73
2021/04/10 08:08:22;;;;;;;4.70;2.00;;;;;;;15.54;51.56;98694.84;5048202;28;42685;-73
2021/04/10 08:10:58;;;;;;;3.53;1.80;;;;;;;16.77;49.41;98696.50;5052788;28;42844;-73
2021/04/10 08:13:25;;;;;;;3.03;2.07;;;;;;;17.78;47.31;98709.44;5047966;28;42297;-73
2021/04/10 08:16:11;;;;;;;4.97;2.00;;;;;;;18.73;44.69;98727.97;5046639;28;40508;-73
2021/04/10 08:18:44;;;;;;;1.90;1.60;;;;;;;18.93;43.73;98729.53;5048150;28;42208;-73
2021/04/10 08:21:13;;;;;;;3.03;1.70;;;;;;;19.19;42.91;98729.63;5059201;28;42641;-73
2021/04/10 08:23:40;;;;;;;3.33;1.90;;;;;;;19.26;42.09;98741.47;5066138;28;42741;-74
2021/04/10 08:26:08;;;;;;;2.83;1.53;;;;;;;19.12;42.53;98742.00;5045679;28;39919;-73
2021/04/10 08:28:35;;;;;;;4.30;1.90;;;;;;;19.07;42.46;98738.91;5042087;28;41925;-73
2021/04/10 08:31:03;;;;;;;5.37;1.90;;;;;;;19.09;42.60;98732.41;5060087;28;43176;-73
2021/04/10 08:33:31;;;;;;;3.40;1.70;;;;;;;19.23;42.45;98736.38;5044939;28;42556;-73
2021/04/10 08:36:04;;;;;;;2.53;1.70;;;;;;;19.10;41.82;98752.03;5046350;28;41571;-73
2021/04/10 08:38:33;;;;;;;2.97;1.60;;;;;;;19.01;42.53;98743.91;5065101;28;41426;-73
2021/04/10 08:41:03;;;;;;;3.03;1.83;;;;;;;18.91;41.99;98743.13;5066821;28;43434;-73
2021/04/10 08:43:31;;;;;;;2.43;1.67;;;;;;;18.80;42.02;98745.16;5059497;28;41924;-74
2021/04/10 08:46:00;;;;;;;3.03;1.63;;;;;;;18.69;42.75;98748.88;5046349;28;40357;-73
2021/04/10 08:48:28;;;;;;;3.87;1.77;;;;;;;18.53;43.20;98737.94;5045671;28;41708;-73
2021/04/10 08:50:59;;;;;;;2.77;1.50;;;;;;;18.41;43.40;98734.63;5063511;28;42739;-73
2021/04/10 08:53:28;;;;;;;3.77;1.70;;;;;;;18.48;43.45;98745.56;5048414;28;42880;-73
2021/04/10 08:55:57;;;;;;;2.50;1.63;;;;;;;18.43;43.53;98742.50;5055998;28;39016;-73
2021/04/10 08:58:28;;;;;;;2.97;1.50;;;;;;;18.60;43.04;98752.47;5068777;28;41770;-74
2021/04/10 09:00:57;;;;;;;4.63;1.73;;;;;;;18.59;42.57;98748.94;5061000;28;43622;-74
2021/04/10 09:03:52;;;;;;;3.80;1.77;;;;;;;18.39;42.73;98752.69;5047292;28;42219;-74
2021/04/10 09:06:47;;;;;;;2.93;1.40;;;;;;;18.03;43.24;98757.03;5047984;28;40156;-73
2021/04/10 09:09:29;;;;;;;4.73;1.57;;;;;;;17.70;44.13;98749.47;5050319;28;41456;-74
2021/04/10 09:12:26;;;;;;;4.70;1.77;;;;;;;17.53;45.07;98746.53;5051890;28;41703;-72
2021/04/10 09:14:54;;;;;;;3.40;1.83;;;;;;;17.31;44.93;98744.13;5058430;28;42277;-72
2021/04/10 09:17:54;;;;;;;3.27;1.50;;;;;;;17.06;45.34;98750.06;5070554;28;40309;-72
2021/04/10 09:20:48;;;;;;;2.33;1.57;;;;;;;16.88;45.80;98755.22;5052338;28;41755;-72
2021/04/10 09:23:27;;;;;;;4.20;1.80;;;;;;;16.80;45.92;98734.53;5051029;28;42521;-74
2021/04/10 09:26:06;;;;;;;3.00;1.30;;;;;;;16.85;46.15;98737.59;5050407;28;42743;-75
2021/04/10 09:28:34;;;;;;;3.03;1.70;;;;;;;17.03;45.85;98756.50;5051673;28;40740;-72
2021/04/10 09:31:01;;;;;;;2.20;1.47;;;;;;;17.14;45.80;98763.56;5077456;28;42693;-72
2021/04/10 09:33:34;;;;;;;3.00;1.20;;;;;;;17.15;45.47;98743.84;5071476;28;43103;-71
2021/04/10 09:36:02;;;;;;;1.73;1.43;;;;;;;17.24;45.14;98754.56;5067498;28;43052;-72
2021/04/10 09:38:38;;;;;;;2.17;1.50;;;;;;;17.31;45.13;98770.88;5049473;28;39701;-72
2021/04/10 09:41:06;;;;;;;2.67;1.70;;;;;;;17.30;45.46;98763.03;5049059;28;42345;-73
2021/04/10 09:43:33;;;;;;;1.40;1.30;;;;;;;17.22;45.23;98766.38;5049736;28;42509;-73
2021/04/10 09:46:01;;;;;;;2.40;1.30;;;;;;;17.06;45.21;98766.09;5050405;28;43009;-73
2021/04/10 09:48:36;;;;;;;3.10;1.40;;;;;;;17.04;45.57;98768.06;5051497;28;40131;-73
2021/04/10 09:51:16;;;;;;;1.97;1.50;;;;;;;17.01;45.50;98781.72;5065353;28;41739;-73
2021/04/10 09:53:50;;;;;;;3.37;1.50;;;;;;;17.02;45.18;98776.22;5050765;28;42735;-73
2021/04/10 09:56:19;;;;;;;2.03;1.50;;;;;;;16.95;44.95;98782.25;5065865;28;42225;-73
2021/04/10 09:58:56;;;;;;;1.93;1.40;;;;;;;16.86;44.86;98776.75;5049793;28;39979;-74
2021/04/10 10:01:25;;;;;;;1.97;1.27;;;;;;;16.86;45.32;98776.75;5050152;28;40109;-73
2021/04/10 10:03:53;;;;;;;2.90;1.60;;;;;;;16.74;45.42;98766.31;5050261;28;42909;-73
2021/04/10 10:06:26;;;;;;;3.87;1.50;;;;;;;16.81;45.03;98783.50;5047979;28;42058;-73
2021/04/10 10:08:53;;;;;;;3.13;1.53;;;;;;;16.46;44.79;98741.97;5050218;28;39987;-73
2021/04/10 10:11:22;;;;;;;1.97;1.37;;;;;;;16.66;45.16;98785.72;5050462;28;42216;-73
2021/04/10 10:13:49;;;;;;;4.00;1.53;;;;;;;16.55;45.56;98771.56;5049072;28;42875;-73
2021/04/10 10:16:30;;;;;;;3.37;1.20;;;;;;;16.51;45.83;98776.34;5058394;28;41054;-73
2021/04/10 10:18:58;;;;;;;4.37;1.40;;;;;;;16.45;45.87;98774.19;5069561;28;40721;-73
2021/04/10 10:21:25;;;;;;;3.23;1.40;;;;;;;16.35;46.78;98770.63;5072093;28;42145;-73
2021/04/10 10:23:55;;;;;;;3.10;1.60;;;;;;;16.34;46.64;98752.91;5050304;28;43366;-73
2021/04/10 10:26:25;;;;;;;4.00;1.60;;;;;;;16.45;46.54;98760.81;5048862;28;42217;-73
2021/04/10 10:28:57;;;;;;;2.27;1.37;;;;;;;16.66;46.05;98775.03;5065592;28;40053;-73
2021/04/10 10:31:28;;;;;;;5.13;1.63;;;;;;;16.94;46.00;98775.22;5048328;28;42223;-74
2021/04/10 10:34:04;;;;;;;2.90;1.60;;;;;;;17.36;45.80;98770.47;5048578;28;42492;-73
2021/04/10 10:36:33;;;;;;;3.77;1.40;;;;;;;17.90;45.09;98764.56;5051344;28;42373;-74
2021/04/10 10:39:00;;;;;;;3.00;1.50;;;;;;;18.61;43.43;98778.31;5084862;28;40503;-73
2021/04/10 10:41:28;;;;;;;1.70;1.40;;;;;;;19.34;42.23;98787.19;5062144;28;42225;-75
2021/04/10 10:44:01;;;;;;;2.13;1.43;;;;;;;20.18;40.15;98798.31;5064483;28;42345;-74
2021/04/10 10:46:28;;;;;;;5.13;1.87;;;;;;;20.94;38.48;98800.25;5048601;28;42173;-73
2021/04/10 10:48:58;;;;;;;3.50;1.63;;;;;;;21.36;37.65;98811.03;5048417;28;39753;-73
2021/04/10 10:51:25;;;;;;;3.27;1.40;;;;;;;21.34;37.32;98813.03;5063474;28;42544;-73
2021/04/10 10:53:54;;;;;;;2.90;1.60;;;;;;;21.12;37.13;98809.91;5050919;28;42844;-73
2021/04/10 10:56:25;;;;;;;3.60;1.57;;;;;;;20.93;37.34;98809.31;5071878;28;42862;-74
2021/04/10 10:58:55;;;;;;;6.47;1.80;;;;;;;20.62;37.91;98806.34;5048515;28;40053;-74
2021/04/10 11:01:25;;;;;;;2.60;1.53;;;;;;;20.15;37.98;98804.03;5047314;28;41680;-74
2021/04/10 11:03:56;;;;;;;3.53;1.60;;;;;;;19.79;38.46;98807.75;5046547;28;42531;-73
2021/04/10 11:06:25;;;;;;;3.77;1.60;;;;;;;19.42;39.40;98799.81;5046833;28;42219;-73
2021/04/10 11:08:54;;;;;;;2.37;1.50;;;;;;;19.06;39.43;98796.25;5048047;28;40734;-73
2021/04/10 11:11:29;;;;;;;3.67;1.60;;;;;;;18.81;40.20;98784.41;5057384;28;42345;-74
2021/04/10 11:13:58;;;;;;;2.80;1.43;;;;;;;18.65;40.46;98785.06;5066945;28;41750;-73
2021/04/10 11:16:25;;;;;;;8.50;2.37;;;;;;;18.52;40.90;98784.53;5069124;28;42713;-73
2021/04/10 11:18:57;;;;;;;2.40;1.50;;;;;;;18.26;40.73;98766.41;5069238;28;39760;-73
2021/04/10 11:21:29;;;;;;;2.53;1.57;;;;;;;18.25;40.88;98794.22;5052152;28;42306;-73
2021/04/10 11:24:10;;;;;;;4.27;1.70;;;;;;;18.04;41.46;98779.34;5064208;28;42609;-74
2021/04/10 11:26:46;;;;;;;3.17;1.70;;;;;;;17.81;41.88;98784.13;5062183;28;42153;-73
2021/04/10 11:29:40;;;;;;;4.77;1.37;;;;;;;17.57;42.17;98774.69;5048958;28;39610;-74
2021/04/10 11:32:10;;;;;;;6.03;2.00;;;;;;;17.45;42.25;98773.16;5040087;28;41388;-75
2021/04/10 11:34:40;;;;;;;4.27;1.70;;;;;;;17.30;42.81;98761.19;5048626;28;42766;-74
2021/04/10 11:37:09;;;;;;;2.60;1.77;;;;;;;17.16;43.46;98766.94;5031555;28;42006;-73
2021/04/10 11:39:51;;;;;;;4.20;1.60;;;;;;;17.04;43.79;98768.91;5049360;28;40676;-74
2021/04/10 11:42:23;;;;;;;3.87;2.43;;;;;;;16.88;43.90;98768.59;5049119;28;42058;-74
2021/04/10 11:44:52;;;;;;;3.57;1.80;;;;;;;16.72;44.16;98752.22;5030707;28;41800;-74
2021/04/10 11:47:20;;;;;;;3.57;1.47;;;;;;;16.51;44.81;98766.50;5062180;28;42255;-74
2021/04/10 11:49:48;;;;;;;4.90;2.03;;;;;;;16.34;45.04;98760.91;5067469;28;40612;-74